createdAt,value
2023-01-13T00:00:13.378Z,5.80
2023-01-13T00:00:35.747Z,5.80
2023-01-13T00:01:09.229Z,5.90
2023-01-13T00:01:23.687Z,6.03
2023-01-13T00:01:36.476Z,5.90
2023-01-13T00:01:49.615Z,5.97
2023-01-13T00:02:02.432Z,6.35
2023-01-13T00:02:15.254Z,6.50
2023-01-13T00:02:28.047Z,6.40
2023-01-13T00:02:41.925Z,6.30
2023-01-13T00:02:54.838Z,6.05
2023-01-13T00:03:07.656Z,6.05
2023-01-13T00:03:20.888Z,6.32
2023-01-13T00:03:33.681Z,6.53
2023-01-13T00:03:46.738Z,6.50
2023-01-13T00:04:01.102Z,6.43
2023-01-13T00:04:14.005Z,6.32
2023-01-13T00:04:27.011Z,6.28
2023-01-13T00:04:39.966Z,5.95
2023-01-13T00:04:52.824Z,6.20
2023-01-13T00:05:06.342Z,6.22
2023-01-13T00:05:19.431Z,6.20
2023-01-13T00:05:33.239Z,6.25
2023-01-13T00:05:46.014Z,6.90
2023-01-13T00:05:59.506Z,7.10
2023-01-13T00:06:14.342Z,6.93
2023-01-13T00:06:27.383Z,6.75
2023-01-13T00:06:40.177Z,7.07
2023-01-13T00:06:52.983Z,6.90
2023-01-13T00:07:06.812Z,6.68
2023-01-13T00:07:19.602Z,6.82
2023-01-13T00:07:32.372Z,6.93
2023-01-13T00:07:46.562Z,7.00
2023-01-13T00:07:59.351Z,7.00
2023-01-13T00:08:12.144Z,6.95
2023-01-13T00:08:24.923Z,7.00
2023-01-13T00:08:38.719Z,7.10
2023-01-13T00:08:52.452Z,6.90
2023-01-13T00:09:05.393Z,6.80
2023-01-13T00:09:18.353Z,6.68
2023-01-13T00:09:31.826Z,6.75
2023-01-13T00:09:44.619Z,6.70
2023-01-13T00:09:58.691Z,6.70
2023-01-13T00:10:11.780Z,6.95
2023-01-13T00:10:24.646Z,7.22
2023-01-13T00:10:37.456Z,7.10
2023-01-13T00:10:50.243Z,7.10
2023-01-13T00:11:03.090Z,7.10
2023-01-13T00:11:17.038Z,6.70
2023-01-13T00:11:29.822Z,6.47
2023-01-13T00:11:42.682Z,6.55
2023-01-13T00:11:56.336Z,6.93
2023-01-13T00:12:09.076Z,7.30
2023-01-13T00:12:21.909Z,7.05
2023-01-13T00:12:35.697Z,7.13
2023-01-13T00:12:48.477Z,7.30
2023-01-13T00:13:01.636Z,7.10
2023-01-13T00:13:14.922Z,6.95
2023-01-13T00:13:27.736Z,7.10
2023-01-13T00:13:41.503Z,7.32
2023-01-13T00:13:54.348Z,7.45
2023-01-13T00:14:07.422Z,7.45
2023-01-13T00:14:20.263Z,7.50
2023-01-13T00:14:34.292Z,7.30
2023-01-13T00:14:47.067Z,6.85
2023-01-13T00:14:59.808Z,6.90
2023-01-13T00:15:15.031Z,7.05
2023-01-13T00:15:28.011Z,7.22
2023-01-13T00:15:40.845Z,7.38
2023-01-13T00:15:57.389Z,7.35
2023-01-13T00:16:12.766Z,7.13
2023-01-13T00:16:25.596Z,7.05
2023-01-13T00:16:39.388Z,7.10
2023-01-13T00:16:52.180Z,7.00
2023-01-13T00:17:05.070Z,7.20
2023-01-13T00:17:17.862Z,7.35
2023-01-13T00:17:30.655Z,7.18
2023-01-13T00:17:43.412Z,7.22
2023-01-13T00:17:56.179Z,7.20
2023-01-13T00:18:08.990Z,7.30
2023-01-13T00:18:22.088Z,7.35
2023-01-13T00:18:37.032Z,7.15
2023-01-13T00:18:51.363Z,7.28
2023-01-13T00:19:04.144Z,7.20
2023-01-13T00:19:16.927Z,7.28
2023-01-13T00:19:30.068Z,7.43
2023-01-13T00:19:42.909Z,7.47
2023-01-13T00:19:57.070Z,7.35
2023-01-13T00:20:11.484Z,7.13
2023-01-13T00:20:24.323Z,7.47
2023-01-13T00:20:37.123Z,7.65
2023-01-13T00:20:58.956Z,7.38
2023-01-13T00:21:15.068Z,7.30
2023-01-13T00:21:28.942Z,7.35
2023-01-13T00:21:41.721Z,7.22
2023-01-13T00:21:54.549Z,7.30
2023-01-13T00:22:07.645Z,7.40
2023-01-13T00:22:20.411Z,7.65
2023-01-13T00:22:34.043Z,7.80
2023-01-13T00:22:48.009Z,7.68
2023-01-13T00:23:01.513Z,7.78
2023-01-13T00:23:14.299Z,7.60
2023-01-13T00:23:28.256Z,7.63
2023-01-13T00:23:41.091Z,7.55
2023-01-13T00:23:55.135Z,7.75
2023-01-13T00:24:07.958Z,7.90
2023-01-13T00:24:21.785Z,7.75
2023-01-13T00:24:34.545Z,7.80
2023-01-13T00:24:47.301Z,7.88
2023-01-13T00:25:01.582Z,7.82
2023-01-13T00:25:14.754Z,7.72
2023-01-13T00:25:27.592Z,7.57
2023-01-13T00:25:41.398Z,7.43
2023-01-13T00:25:55.933Z,7.50
2023-01-13T00:26:12.706Z,7.70
2023-01-13T00:26:28.187Z,7.63
2023-01-13T00:26:40.973Z,7.93
2023-01-13T00:26:53.766Z,8.02
2023-01-13T00:27:07.551Z,8.30
2023-01-13T00:27:20.327Z,8.10
2023-01-13T00:27:33.799Z,7.63
2023-01-13T00:27:46.575Z,7.72
2023-01-13T00:27:59.359Z,8.18
2023-01-13T00:28:12.128Z,8.10
2023-01-13T00:28:26.217Z,7.90
2023-01-13T00:28:39.044Z,8.10
2023-01-13T00:28:56.117Z,7.95
2023-01-13T00:29:08.893Z,7.57
2023-01-13T00:29:21.881Z,7.70
2023-01-13T00:29:34.653Z,7.82
2023-01-13T00:29:47.411Z,7.72
2023-01-13T00:30:00.294Z,7.72
2023-01-13T00:30:16.426Z,7.47
2023-01-13T00:30:29.226Z,7.60
2023-01-13T00:30:42.003Z,7.90
2023-01-13T00:30:56.469Z,8.00
2023-01-13T00:31:10.773Z,7.85
2023-01-13T00:31:23.879Z,7.55
2023-01-13T00:31:36.679Z,7.60
2023-01-13T00:31:49.817Z,7.60
2023-01-13T00:32:03.630Z,7.28
2023-01-13T00:32:16.383Z,7.40
2023-01-13T00:32:29.235Z,7.82
2023-01-13T00:32:42.008Z,7.75
2023-01-13T00:32:54.860Z,7.43
2023-01-13T00:33:07.634Z,7.45
2023-01-13T00:33:20.724Z,7.53
2023-01-13T00:33:34.598Z,7.35
2023-01-13T00:33:49.086Z,7.50
2023-01-13T00:34:02.240Z,7.70
2023-01-13T00:34:15.423Z,7.95
2023-01-13T00:34:28.227Z,8.35
2023-01-13T00:34:41.993Z,8.20
2023-01-13T00:34:54.902Z,7.80
2023-01-13T00:35:08.821Z,7.70
2023-01-13T00:35:21.635Z,7.82
2023-01-13T00:35:34.404Z,7.80
2023-01-13T00:35:56.243Z,7.80
2023-01-13T00:36:12.711Z,8.13
2023-01-13T00:36:26.843Z,8.38
2023-01-13T00:36:39.643Z,8.05
2023-01-13T00:36:52.556Z,7.63
2023-01-13T00:37:05.394Z,7.65
2023-01-13T00:37:18.193Z,8.07
2023-01-13T00:37:32.035Z,8.32
2023-01-13T00:37:44.800Z,7.90
2023-01-13T00:37:57.585Z,7.60
2023-01-13T00:38:10.437Z,7.60
2023-01-13T00:38:23.316Z,7.60
2023-01-13T00:38:38.936Z,7.70
2023-01-13T00:38:52.800Z,7.97
2023-01-13T00:39:05.658Z,7.85
2023-01-13T00:39:18.485Z,7.82
2023-01-13T00:39:31.322Z,7.95
2023-01-13T00:39:44.279Z,7.80
2023-01-13T00:39:59.031Z,7.45
2023-01-13T00:40:12.675Z,7.60
2023-01-13T00:40:25.477Z,7.95
2023-01-13T00:40:38.344Z,8.32
2023-01-13T00:40:57.914Z,8.30
2023-01-13T00:41:12.855Z,7.70
2023-01-13T00:41:27.285Z,7.50
2023-01-13T00:41:58.948Z,7.60
2023-01-13T00:42:32.425Z,7.80
2023-01-13T00:43:04.337Z,8.02
2023-01-13T00:43:23.846Z,7.88
2023-01-13T00:43:37.851Z,7.57
2023-01-13T00:43:51.375Z,7.70
2023-01-13T00:44:04.189Z,7.85
2023-01-13T00:44:17.126Z,7.88
2023-01-13T00:44:29.891Z,8.05
2023-01-13T00:44:42.672Z,8.07
2023-01-13T00:44:55.452Z,7.70
2023-01-13T00:45:09.718Z,7.88
2023-01-13T00:45:23.874Z,7.95
2023-01-13T00:45:38.138Z,7.95
2023-01-13T00:45:51.630Z,7.72
2023-01-13T00:46:06.374Z,7.80
2023-01-13T00:46:21.532Z,7.75
2023-01-13T00:46:34.347Z,7.53
2023-01-13T00:46:48.540Z,7.45
2023-01-13T00:47:01.383Z,7.40
2023-01-13T00:47:14.254Z,7.40
2023-01-13T00:47:27.159Z,7.78
2023-01-13T00:47:39.966Z,7.80
2023-01-13T00:47:52.758Z,7.57
2023-01-13T00:48:06.580Z,7.60
2023-01-13T00:48:19.728Z,7.68
2023-01-13T00:48:33.037Z,7.53
2023-01-13T00:48:47.060Z,7.63
2023-01-13T00:48:59.887Z,7.55
2023-01-13T00:49:12.741Z,7.20
2023-01-13T00:49:25.664Z,7.05
2023-01-13T00:49:38.433Z,7.22
2023-01-13T00:49:52.192Z,7.47
2023-01-13T00:50:05.626Z,7.65
2023-01-13T00:50:18.524Z,7.43
2023-01-13T00:50:31.343Z,7.00
2023-01-13T00:50:44.140Z,7.20
2023-01-13T00:50:59.149Z,7.53
2023-01-13T00:51:15.525Z,7.07
2023-01-13T00:51:28.329Z,6.70
2023-01-13T00:51:41.077Z,6.63
2023-01-13T00:51:53.834Z,6.57
2023-01-13T00:52:06.691Z,6.50
2023-01-13T00:52:19.503Z,7.13
2023-01-13T00:52:33.750Z,7.25
2023-01-13T00:52:46.511Z,6.80
2023-01-13T00:53:00.493Z,6.80
2023-01-13T00:53:14.893Z,6.97
2023-01-13T00:53:28.576Z,7.70
2023-01-13T00:53:43.443Z,7.95
2023-01-13T00:53:56.211Z,7.30
2023-01-13T00:54:10.021Z,7.50
2023-01-13T00:54:22.826Z,7.70
2023-01-13T00:54:35.606Z,7.97
2023-01-13T00:54:48.713Z,8.02
2023-01-13T00:55:01.566Z,7.88
2023-01-13T00:55:14.538Z,7.90
2023-01-13T00:55:27.611Z,7.50
2023-01-13T00:55:41.436Z,7.38
2023-01-13T00:56:01.022Z,7.60
2023-01-13T00:56:21.898Z,7.88
2023-01-13T00:56:40.504Z,7.55
2023-01-13T00:56:54.730Z,6.78
2023-01-13T00:57:07.692Z,7.10
2023-01-13T00:57:20.506Z,7.28
2023-01-13T00:57:34.234Z,7.20
2023-01-13T00:57:47.001Z,7.20
2023-01-13T00:58:03.562Z,7.40
2023-01-13T00:58:16.484Z,7.38
2023-01-13T00:58:33.395Z,7.13
2023-01-13T00:58:47.218Z,7.15
2023-01-13T00:59:00.295Z,7.22
2023-01-13T00:59:13.987Z,7.30
2023-01-13T00:59:26.768Z,7.20
2023-01-13T00:59:39.559Z,7.20
2023-01-13T00:59:52.361Z,7.40
2023-01-13T01:00:05.768Z,7.50
2023-01-13T01:00:20.536Z,7.60
2023-01-13T01:00:34.729Z,7.40
2023-01-13T01:00:47.559Z,7.30
2023-01-13T01:01:01.200Z,7.22
2023-01-13T01:01:18.461Z,7.50
2023-01-13T01:01:31.406Z,7.72
2023-01-13T01:01:45.385Z,7.60
2023-01-13T01:01:58.353Z,7.40
2023-01-13T01:02:11.456Z,7.50
2023-01-13T01:02:24.297Z,7.35
2023-01-13T01:02:37.189Z,7.40
2023-01-13T01:02:50.011Z,7.50
2023-01-13T01:03:04.196Z,7.40
2023-01-13T01:03:17.013Z,7.22
2023-01-13T01:03:29.857Z,7.35
2023-01-13T01:03:42.642Z,7.57
2023-01-13T01:03:55.541Z,7.45
2023-01-13T01:04:08.382Z,7.47
2023-01-13T01:04:21.302Z,7.57
2023-01-13T01:04:34.169Z,7.45
2023-01-13T01:04:46.978Z,7.50
2023-01-13T01:05:01.192Z,7.45
2023-01-13T01:05:13.988Z,7.57
2023-01-13T01:05:26.777Z,7.70
2023-01-13T01:05:39.663Z,7.68
2023-01-13T01:05:52.416Z,7.72
2023-01-13T01:06:06.796Z,7.78
2023-01-13T01:06:22.145Z,7.65
2023-01-13T01:06:34.941Z,7.72
2023-01-13T01:06:47.823Z,7.57
2023-01-13T01:07:00.897Z,7.75
2023-01-13T01:07:13.688Z,7.60
2023-01-13T01:07:26.456Z,7.43
2023-01-13T01:07:39.243Z,7.32
2023-01-13T01:07:53.076Z,7.70
2023-01-13T01:08:06.108Z,7.80
2023-01-13T01:08:18.904Z,7.93
2023-01-13T01:08:31.815Z,7.97
2023-01-13T01:08:44.890Z,8.00
2023-01-13T01:08:57.863Z,8.20
2023-01-13T01:09:14.835Z,8.15
2023-01-13T01:09:32.704Z,8.18
2023-01-13T01:09:45.501Z,8.38
2023-01-13T01:09:58.314Z,8.35
2023-01-13T01:10:11.898Z,8.40
2023-01-13T01:10:24.693Z,8.73
2023-01-13T01:10:38.496Z,8.77
2023-01-13T01:11:01.313Z,8.38
2023-01-13T01:11:15.886Z,8.60
2023-01-13T01:11:32.697Z,8.63
2023-01-13T01:11:45.599Z,8.73
2023-01-13T01:11:59.597Z,9.00
2023-01-13T01:12:12.401Z,8.90
2023-01-13T01:12:25.346Z,9.15
2023-01-13T01:12:38.262Z,9.45
2023-01-13T01:12:51.142Z,9.55
2023-01-13T01:13:03.917Z,9.10
2023-01-13T01:13:17.497Z,8.90
2023-01-13T01:13:30.577Z,9.15
2023-01-13T01:13:45.221Z,9.15
2023-01-13T01:14:00.456Z,9.07
2023-01-13T01:14:14.176Z,9.40
2023-01-13T01:14:27.487Z,9.43
2023-01-13T01:14:40.280Z,9.43
2023-01-13T01:14:54.046Z,9.70
2023-01-13T01:15:10.098Z,9.90
2023-01-13T01:15:23.094Z,9.85
2023-01-13T01:15:40.211Z,9.82
2023-01-13T01:15:53.010Z,9.88
2023-01-13T01:16:07.742Z,10.18
2023-01-13T01:16:24.052Z,10.13
2023-01-13T01:16:39.207Z,9.70
2023-01-13T01:16:52.109Z,9.82
2023-01-13T01:17:04.887Z,9.85
2023-01-13T01:17:17.732Z,9.85
2023-01-13T01:17:30.498Z,10.15
2023-01-13T01:17:43.438Z,10.25
2023-01-13T01:17:57.755Z,9.85
2023-01-13T01:18:10.573Z,9.75
2023-01-13T01:18:23.407Z,10.00
2023-01-13T01:18:37.929Z,9.93
2023-01-13T01:18:51.937Z,9.90
2023-01-13T01:19:05.232Z,9.77
2023-01-13T01:19:19.686Z,9.80
2023-01-13T01:19:32.500Z,9.80
2023-01-13T01:19:45.378Z,9.75
2023-01-13T01:20:01.999Z,9.98
2023-01-13T01:20:15.160Z,10.13
2023-01-13T01:20:27.981Z,10.23
2023-01-13T01:20:41.994Z,10.32
2023-01-13T01:20:54.799Z,10.27
2023-01-13T01:21:08.465Z,10.35
2023-01-13T01:21:23.182Z,10.02
2023-01-13T01:21:36.677Z,9.88
2023-01-13T01:21:49.479Z,9.70
2023-01-13T01:22:03.266Z,9.70
2023-01-13T01:22:16.059Z,9.50
2023-01-13T01:22:28.864Z,9.57
2023-01-13T01:22:41.643Z,9.88
2023-01-13T01:22:54.414Z,9.90
2023-01-13T01:23:07.247Z,9.50
2023-01-13T01:23:20.333Z,9.57
2023-01-13T01:23:34.973Z,9.77
2023-01-13T01:23:47.829Z,9.93
2023-01-13T01:24:05.272Z,9.75
2023-01-13T01:24:18.101Z,9.30
2023-01-13T01:24:31.089Z,9.25
2023-01-13T01:24:43.876Z,9.10
2023-01-13T01:24:58.304Z,9.27
2023-01-13T01:25:11.151Z,9.80
2023-01-13T01:25:23.933Z,9.90
2023-01-13T01:25:36.737Z,9.50
2023-01-13T01:25:49.533Z,9.50
2023-01-13T01:26:03.370Z,9.45
2023-01-13T01:26:18.314Z,9.65
2023-01-13T01:26:33.367Z,9.85
2023-01-13T01:26:46.149Z,9.68
2023-01-13T01:26:58.963Z,9.40
2023-01-13T01:27:12.013Z,9.32
2023-01-13T01:27:24.788Z,9.32
2023-01-13T01:27:37.567Z,9.15
2023-01-13T01:27:51.344Z,9.32
2023-01-13T01:28:04.219Z,9.55
2023-01-13T01:28:19.471Z,9.68
2023-01-13T01:28:32.730Z,9.55
2023-01-13T01:28:45.854Z,9.23
2023-01-13T01:28:59.854Z,9.18
2023-01-13T01:29:14.681Z,9.30
2023-01-13T01:29:27.506Z,9.55
2023-01-13T01:29:41.295Z,9.77
2023-01-13T01:29:54.095Z,9.52
2023-01-13T01:30:08.461Z,9.35
2023-01-13T01:30:21.333Z,9.57
2023-01-13T01:30:34.145Z,9.70
2023-01-13T01:30:48.294Z,9.98
2023-01-13T01:31:05.686Z,10.00
2023-01-13T01:31:22.753Z,9.82
2023-01-13T01:31:35.839Z,9.40
2023-01-13T01:31:48.655Z,9.45
2023-01-13T01:32:01.441Z,9.82
2023-01-13T01:32:14.300Z,10.13
2023-01-13T01:32:28.100Z,10.13
2023-01-13T01:32:40.879Z,10.40
2023-01-13T01:32:53.628Z,10.25
2023-01-13T01:33:06.542Z,10.10
2023-01-13T01:33:19.338Z,10.30
2023-01-13T01:33:32.104Z,10.75
2023-01-13T01:33:46.553Z,11.18
2023-01-13T01:34:01.331Z,11.32
2023-01-13T01:34:14.233Z,11.20
2023-01-13T01:34:27.010Z,11.07
2023-01-13T01:34:39.803Z,10.95
2023-01-13T01:34:52.613Z,11.05
2023-01-13T01:35:06.274Z,11.30
2023-01-13T01:35:19.394Z,11.27
2023-01-13T01:35:32.143Z,11.32
2023-01-13T01:35:45.901Z,11.52
2023-01-13T01:36:00.535Z,11.73
2023-01-13T01:36:14.959Z,11.95
2023-01-13T01:36:30.017Z,11.50
2023-01-13T01:36:43.821Z,11.52
2023-01-13T01:36:56.581Z,11.82
2023-01-13T01:37:09.334Z,11.60
2023-01-13T01:37:22.120Z,11.57
2023-01-13T01:37:34.902Z,12.00
2023-01-13T01:37:47.643Z,12.25
2023-01-13T01:38:00.665Z,12.35
2023-01-13T01:38:13.482Z,12.20
2023-01-13T01:38:26.246Z,11.90
2023-01-13T01:38:40.051Z,12.10
2023-01-13T01:38:52.887Z,12.00
2023-01-13T01:39:06.870Z,12.23
2023-01-13T01:39:19.904Z,12.07
2023-01-13T01:39:32.684Z,11.73
2023-01-13T01:39:45.430Z,11.90
2023-01-13T01:39:58.196Z,12.02
2023-01-13T01:40:13.847Z,12.63
2023-01-13T01:40:27.315Z,13.27
2023-01-13T01:40:40.091Z,13.13
2023-01-13T01:40:52.973Z,12.40
2023-01-13T01:41:06.188Z,12.60
2023-01-13T01:41:21.870Z,12.55
2023-01-13T01:41:35.864Z,12.60
2023-01-13T01:42:03.459Z,12.57
2023-01-13T01:42:36.015Z,12.60
2023-01-13T01:43:21.720Z,12.70
2023-01-13T01:44:02.376Z,12.20
2023-01-13T01:44:52.632Z,11.75
2023-01-13T01:45:16.074Z,12.15
2023-01-13T01:45:31.350Z,11.65
2023-01-13T01:45:45.134Z,11.40
2023-01-13T01:45:59.361Z,11.70
2023-01-13T01:46:12.132Z,12.15
2023-01-13T01:46:25.070Z,11.95
2023-01-13T01:46:40.145Z,11.82
2023-01-13T01:46:53.196Z,11.77
2023-01-13T01:47:06.175Z,11.90
2023-01-13T01:47:20.382Z,11.88
2023-01-13T01:47:34.222Z,11.55
2023-01-13T01:47:49.112Z,11.73
2023-01-13T01:48:04.503Z,12.00
2023-01-13T01:48:17.590Z,11.75
2023-01-13T01:48:34.621Z,11.52
2023-01-13T01:48:47.429Z,11.48
2023-01-13T01:49:09.880Z,11.50
2023-01-13T01:49:27.702Z,11.50
2023-01-13T01:49:41.646Z,11.18
2023-01-13T01:49:56.407Z,10.80
2023-01-13T01:50:10.684Z,10.98
2023-01-13T01:50:25.209Z,11.23
2023-01-13T01:50:40.255Z,10.82
2023-01-13T01:50:53.351Z,10.95
2023-01-13T01:51:10.945Z,10.80
2023-01-13T01:51:23.982Z,10.40
2023-01-13T01:51:41.797Z,10.60
2023-01-13T01:52:00.858Z,10.43
2023-01-13T01:52:17.169Z,10.60
2023-01-13T01:52:34.473Z,10.55
2023-01-13T01:52:52.952Z,10.60
2023-01-13T01:53:13.249Z,10.70
2023-01-13T01:53:29.685Z,10.25
2023-01-13T01:53:42.506Z,10.05
2023-01-13T01:53:57.359Z,9.88
2023-01-13T01:54:13.471Z,9.52
2023-01-13T01:54:31.412Z,9.38
2023-01-13T01:54:48.347Z,9.80
2023-01-13T01:55:06.609Z,9.95
2023-01-13T01:55:23.843Z,10.18
2023-01-13T01:55:38.564Z,10.02
2023-01-13T01:55:51.624Z,10.10
2023-01-13T01:56:04.762Z,9.90
2023-01-13T01:56:19.359Z,10.00
2023-01-13T01:56:33.757Z,10.10
2023-01-13T01:56:48.421Z,9.90
2023-01-13T01:57:01.411Z,10.15
2023-01-13T01:57:18.369Z,10.07
2023-01-13T01:57:36.523Z,9.98
2023-01-13T01:57:53.724Z,9.93
2023-01-13T01:58:10.069Z,10.02
2023-01-13T01:58:29.211Z,10.30
2023-01-13T01:58:47.498Z,10.27
2023-01-13T01:59:00.466Z,10.02
2023-01-13T01:59:13.976Z,9.85
2023-01-13T01:59:29.978Z,10.10
2023-01-13T01:59:44.467Z,10.57
2023-01-13T02:00:01.027Z,10.00
2023-01-13T02:00:14.620Z,9.82
2023-01-13T02:00:28.699Z,10.05
2023-01-13T02:00:42.024Z,9.70
2023-01-13T02:00:54.964Z,9.88
2023-01-13T02:01:09.791Z,10.38
2023-01-13T02:01:23.803Z,10.20
2023-01-13T02:01:38.158Z,9.65
2023-01-13T02:01:51.167Z,9.90
2023-01-13T02:02:04.476Z,9.85
2023-01-13T02:02:17.960Z,9.93
2023-01-13T02:02:31.492Z,10.18
2023-01-13T02:02:48.737Z,10.10
2023-01-13T02:03:01.932Z,10.02
2023-01-13T02:03:16.531Z,10.00
2023-01-13T02:03:30.296Z,10.00
2023-01-13T02:03:50.219Z,9.95
2023-01-13T02:04:11.051Z,10.30
2023-01-13T02:04:28.723Z,10.20
2023-01-13T02:04:51.019Z,10.40
2023-01-13T02:05:04.371Z,9.90
2023-01-13T02:05:18.226Z,9.88
2023-01-13T02:05:32.037Z,10.25
2023-01-13T02:05:44.821Z,10.20
2023-01-13T02:05:57.606Z,10.00
2023-01-13T02:06:12.136Z,10.23
2023-01-13T02:06:26.096Z,10.20
2023-01-13T02:06:39.812Z,10.52
2023-01-13T02:06:53.885Z,10.93
2023-01-13T02:07:07.469Z,10.90
2023-01-13T02:07:23.979Z,10.73
2023-01-13T02:07:40.027Z,10.48
2023-01-13T02:07:55.252Z,10.00
2023-01-13T02:08:09.748Z,10.07
2023-01-13T02:08:22.851Z,10.70
2023-01-13T02:08:37.468Z,10.65
2023-01-13T02:08:51.188Z,10.75
2023-01-13T02:09:04.417Z,10.70
2023-01-13T02:09:18.899Z,10.65
2023-01-13T02:09:33.061Z,10.80
2023-01-13T02:09:45.961Z,10.80
2023-01-13T02:10:03.092Z,10.80
2023-01-13T02:10:20.330Z,10.75
2023-01-13T02:10:33.247Z,10.40
2023-01-13T02:10:51.321Z,10.30
2023-01-13T02:11:04.213Z,10.32
2023-01-13T02:11:49.958Z,10.50
2023-01-13T02:12:21.362Z,10.55
2023-01-13T02:12:35.493Z,10.43
2023-01-13T02:12:50.949Z,10.25
2023-01-13T02:13:06.742Z,9.60
2023-01-13T02:13:22.445Z,9.48
2023-01-13T02:13:35.243Z,9.57
2023-01-13T02:13:49.103Z,9.50
2023-01-13T02:14:01.976Z,9.70
2023-01-13T02:14:14.963Z,10.13
2023-01-13T02:14:30.191Z,10.18
2023-01-13T02:14:44.269Z,10.30
2023-01-13T02:14:57.895Z,10.25
2023-01-13T02:15:14.486Z,9.93
2023-01-13T02:15:38.331Z,10.18
2023-01-13T02:15:57.182Z,10.13
2023-01-13T02:16:21.863Z,9.93
2023-01-13T02:16:35.087Z,10.10
2023-01-13T02:16:54.999Z,10.27
2023-01-13T02:17:26.456Z,10.23
2023-01-13T02:17:53.939Z,9.75
2023-01-13T02:18:19.490Z,9.52
2023-01-13T02:18:43.317Z,9.88
2023-01-13T02:19:05.310Z,9.70
2023-01-13T02:19:37.295Z,9.93
2023-01-13T02:20:38.347Z,10.27
2023-01-13T02:21:29.136Z,9.98
2023-01-13T02:22:10.698Z,10.50
2023-01-13T02:22:42.183Z,10.30
2023-01-13T02:23:56.791Z,10.27
2023-01-13T02:24:55.892Z,10.05
2023-01-13T02:25:27.135Z,10.38
2023-01-13T02:26:02.953Z,10.10
2023-01-13T02:27:06.244Z,9.80
2023-01-13T02:27:45.473Z,10.18
2023-01-13T02:28:13.001Z,10.30
2023-01-13T02:29:07.308Z,10.23
2023-01-13T02:29:55.717Z,9.95
2023-01-13T02:30:34.109Z,9.98
2023-01-13T02:31:08.519Z,10.30
2023-01-13T02:31:42.443Z,9.88
2023-01-13T02:32:02.651Z,10.30
2023-01-13T02:32:22.152Z,9.98
2023-01-13T02:32:44.760Z,10.25
2023-01-13T02:33:10.419Z,10.25
2023-01-13T02:33:37.611Z,9.40
2023-01-13T02:34:04.828Z,10.20
2023-01-13T02:34:24.077Z,9.77
2023-01-13T02:34:40.780Z,9.88
2023-01-13T02:34:59.429Z,9.93
2023-01-13T02:35:20.170Z,9.77
2023-01-13T02:35:40.967Z,9.38
2023-01-13T02:36:01.602Z,9.60
2023-01-13T02:36:23.855Z,9.60
2023-01-13T02:36:43.054Z,9.68
2023-01-13T02:37:03.450Z,9.65
2023-01-13T02:37:22.589Z,9.52
2023-01-13T02:37:40.697Z,9.55
2023-01-13T02:37:55.093Z,9.38
2023-01-13T02:38:11.858Z,9.60
2023-01-13T02:38:32.690Z,9.60
2023-01-13T02:38:51.947Z,9.60
2023-01-13T02:39:13.380Z,9.82
2023-01-13T02:39:33.643Z,9.63
2023-01-13T02:39:55.403Z,9.80
2023-01-13T02:40:12.662Z,9.73
2023-01-13T02:40:32.338Z,9.68
2023-01-13T02:40:55.874Z,9.70
2023-01-13T02:41:34.642Z,9.20
2023-01-13T02:42:10.956Z,9.50
2023-01-13T02:42:45.777Z,9.38
2023-01-13T02:43:23.180Z,9.25
2023-01-13T02:43:57.936Z,9.50
2023-01-13T02:44:13.248Z,9.13
2023-01-13T02:44:33.574Z,9.20
2023-01-13T02:44:51.142Z,8.60
2023-01-13T02:45:11.746Z,9.02
2023-01-13T02:45:28.501Z,8.63
2023-01-13T02:45:49.055Z,8.70
2023-01-13T02:46:06.839Z,9.07
2023-01-13T02:46:26.608Z,8.55
2023-01-13T02:46:48.881Z,8.57
2023-01-13T02:47:06.638Z,8.68
2023-01-13T02:47:21.308Z,8.25
2023-01-13T02:47:40.245Z,8.10
2023-01-13T02:47:55.990Z,8.40
2023-01-13T02:48:11.349Z,8.40
2023-01-13T02:48:28.034Z,8.30
2023-01-13T02:48:44.823Z,8.20
2023-01-13T02:49:03.295Z,8.15
2023-01-13T02:49:23.762Z,8.10
2023-01-13T02:49:41.638Z,8.32
2023-01-13T02:49:58.859Z,7.93
2023-01-13T02:50:17.535Z,7.78
2023-01-13T02:50:37.580Z,8.07
2023-01-13T02:50:58.363Z,7.82
2023-01-13T02:51:17.920Z,8.25
2023-01-13T02:51:32.733Z,8.07
2023-01-13T02:51:48.227Z,8.07
2023-01-13T02:52:06.439Z,7.70
2023-01-13T02:52:27.135Z,7.28
2023-01-13T02:52:44.070Z,7.78
2023-01-13T02:53:01.554Z,7.70
2023-01-13T02:53:20.705Z,7.68
2023-01-13T02:53:37.813Z,7.90
2023-01-13T02:53:55.244Z,7.72
2023-01-13T02:54:14.009Z,7.97
2023-01-13T02:54:29.425Z,8.00
2023-01-13T02:54:48.185Z,7.70
2023-01-13T02:55:07.800Z,7.75
2023-01-13T02:55:25.847Z,7.28
2023-01-13T02:55:42.249Z,7.68
2023-01-13T02:55:58.551Z,7.68
2023-01-13T02:56:15.183Z,7.55
2023-01-13T02:56:29.284Z,7.53
2023-01-13T02:56:46.002Z,7.95
2023-01-13T02:57:02.251Z,8.15
2023-01-13T02:57:19.803Z,7.40
2023-01-13T02:57:35.190Z,7.53
2023-01-13T02:57:49.818Z,7.78
2023-01-13T02:58:06.473Z,7.57
2023-01-13T02:58:24.363Z,7.55
2023-01-13T02:58:40.636Z,7.55
2023-01-13T02:58:55.953Z,7.60
2023-01-13T02:59:10.156Z,7.75
2023-01-13T02:59:26.300Z,7.45
2023-01-13T02:59:42.612Z,7.45
2023-01-13T02:59:57.173Z,7.85
2023-01-13T03:00:12.586Z,7.47
2023-01-13T03:00:26.736Z,7.15
2023-01-13T03:00:40.476Z,7.15
2023-01-13T03:00:53.518Z,7.00
2023-01-13T03:01:07.089Z,6.90
2023-01-13T03:01:21.711Z,7.10
2023-01-13T03:01:34.615Z,7.10
2023-01-13T03:01:49.313Z,7.18
2023-01-13T03:02:03.632Z,7.20
2023-01-13T03:02:20.342Z,7.03
2023-01-13T03:02:33.530Z,7.32
2023-01-13T03:02:48.937Z,7.30
2023-01-13T03:03:02.386Z,7.50
2023-01-13T03:03:15.619Z,7.60
2023-01-13T03:03:28.417Z,7.47
2023-01-13T03:03:41.216Z,7.28
2023-01-13T03:03:53.964Z,7.05
2023-01-13T03:04:13.283Z,6.90
2023-01-13T03:04:50.224Z,7.03
2023-01-13T03:05:03.129Z,7.07
2023-01-13T03:05:17.210Z,6.88
2023-01-13T03:05:32.721Z,6.80
2023-01-13T03:05:48.893Z,6.88
2023-01-13T03:06:21.414Z,7.10
2023-01-13T03:06:46.919Z,7.40
2023-01-13T03:07:07.383Z,7.60
2023-01-13T03:07:46.188Z,7.35
2023-01-13T03:08:15.745Z,6.80
2023-01-13T03:08:39.743Z,6.90
2023-01-13T03:08:59.946Z,7.22
2023-01-13T03:09:19.429Z,7.00
2023-01-13T03:09:39.861Z,6.50
2023-01-13T03:09:59.463Z,6.45
2023-01-13T03:10:23.580Z,6.90
2023-01-13T03:10:51.507Z,6.80
2023-01-13T03:11:07.795Z,7.10
2023-01-13T03:11:22.512Z,6.90
2023-01-13T03:11:44.095Z,6.97
2023-01-13T03:12:05.462Z,7.18
2023-01-13T03:12:26.661Z,7.40
2023-01-13T03:12:50.706Z,7.25
2023-01-13T03:13:16.090Z,7.00
2023-01-13T03:13:44.917Z,7.20
2023-01-13T03:14:17.228Z,6.90
2023-01-13T03:14:39.718Z,6.65
2023-01-13T03:15:04.551Z,6.70
2023-01-13T03:15:23.695Z,7.07
2023-01-13T03:15:48.036Z,7.13
2023-01-13T03:16:10.022Z,6.97
2023-01-13T03:16:31.507Z,6.60
2023-01-13T03:17:17.286Z,6.47
2023-01-13T03:17:39.988Z,7.00
2023-01-13T03:17:59.762Z,7.05
2023-01-13T03:18:22.963Z,7.13
2023-01-13T03:18:43.567Z,7.00
2023-01-13T03:19:07.455Z,7.13
2023-01-13T03:19:31.185Z,6.72
2023-01-13T03:19:51.950Z,7.13
2023-01-13T03:20:09.336Z,7.20
2023-01-13T03:20:27.486Z,7.03
2023-01-13T03:20:48.159Z,6.90
2023-01-13T03:21:07.870Z,6.80
2023-01-13T03:21:26.779Z,6.55
2023-01-13T03:21:48.693Z,6.60
2023-01-13T03:22:12.267Z,6.70
2023-01-13T03:22:31.776Z,6.63
2023-01-13T03:22:51.753Z,6.40
2023-01-13T03:23:16.448Z,6.47
2023-01-13T03:23:33.660Z,6.53
2023-01-13T03:23:51.857Z,6.78
2023-01-13T03:24:09.335Z,6.70
2023-01-13T03:24:28.142Z,6.50
2023-01-13T03:24:46.319Z,6.53
2023-01-13T03:25:07.240Z,6.40
2023-01-13T03:25:26.647Z,6.55
2023-01-13T03:25:44.880Z,6.63
2023-01-13T03:26:04.642Z,6.60
2023-01-13T03:26:26.628Z,6.60
2023-01-13T03:26:47.348Z,6.75
2023-01-13T03:27:05.035Z,6.70
2023-01-13T03:27:26.275Z,6.32
2023-01-13T03:27:45.479Z,6.45
2023-01-13T03:28:02.733Z,6.10
2023-01-13T03:28:21.962Z,6.10
2023-01-13T03:28:41.341Z,6.30
2023-01-13T03:29:00.996Z,6.10
2023-01-13T03:29:20.753Z,6.40
2023-01-13T03:29:39.706Z,6.63
2023-01-13T03:29:58.565Z,6.55
2023-01-13T03:30:18.133Z,5.97
2023-01-13T03:30:36.473Z,6.20
2023-01-13T03:30:54.601Z,6.65
2023-01-13T03:31:12.029Z,6.65
2023-01-13T03:31:31.720Z,6.50
2023-01-13T03:31:51.693Z,6.57
2023-01-13T03:32:10.616Z,6.50
2023-01-13T03:32:27.151Z,6.63
2023-01-13T03:32:44.501Z,6.55
2023-01-13T03:33:01.264Z,6.45
2023-01-13T03:33:19.028Z,6.60
2023-01-13T03:33:36.854Z,6.40
2023-01-13T03:33:55.920Z,6.30
2023-01-13T03:34:16.378Z,6.03
2023-01-13T03:34:34.284Z,6.18
2023-01-13T03:34:51.831Z,6.00
2023-01-13T03:35:12.454Z,6.28
2023-01-13T03:35:31.905Z,6.30
2023-01-13T03:35:47.902Z,6.20
2023-01-13T03:36:06.340Z,6.30
2023-01-13T03:36:25.782Z,6.38
2023-01-13T03:36:41.924Z,6.03
2023-01-13T03:36:58.032Z,6.00
2023-01-13T03:37:13.709Z,6.18
2023-01-13T03:37:38.910Z,6.30
2023-01-13T03:37:57.038Z,6.40